Main page
METAR-TAF:

METAR-TAF

Airports :

Lamerd Airport

Lamerd, Iran

latitude: 27-22-22N, longitude: 53-11-20E, elevation: 408 m

Current weather observation

The report was made 6 hours and 35 minutes ago, at 15:00 UTC
Wind 10 kt from the West
Temperature 40°C
Humidity 38%
Pressure 995 hPa
Visibility: 5000 m
widespread dust

METAR: OISR 051500Z 28010KT 5000 DU NSC 40/23 Q0995 A2939

Time: 02:05 (21:35 UTC)


TAF: missing

Weather observations and forecasts of more than 4000 airports (METAR and TAF reports).

The available stations are represented by yellow and red dots on the map.

Hover mouse over dot to see the name of the station.

Then click to see weather observations and forecasts.

To change the map : click on the green buttons with a black cross to zoom in, on the green button with a dash to zoom out, or on the green arrows for adjacent maps.


METAR-TAF: